sensor_id;sensor_type;location;lat;lon;timestamp;pressure;altitude;pressure_sealevel;temperature;humidity
70445;BME280;57902;49.638;11.070;2023-11-19T00:00:07;98231.13;;;4.19;100.00
70445;BME280;57902;49.638;11.070;2023-11-19T00:02:41;98215.00;;;4.16;100.00
70445;BME280;57902;49.638;11.070;2023-11-19T00:05:09;98211.59;;;4.20;100.00
70445;BME280;57902;49.638;11.070;2023-11-19T00:07:39;98222.59;;;4.24;100.00
70445;BME280;57902;49.638;11.070;2023-11-19T00:10:12;98230.25;;;4.25;100.00
70445;BME280;57902;49.638;11.070;2023-11-19T00:12:41;98212.44;;;4.19;100.00
70445;BME280;57902;49.638;11.070;2023-11-19T00:15:08;98203.88;;;4.26;100.00
70445;BME280;57902;49.638;11.070;2023-11-19T00:17:42;98193.69;;;4.25;100.00
70445;BME280;57902;49.638;11.070;2023-11-19T00:20:12;98200.47;;;4.26;100.00
70445;BME280;57902;49.638;11.070;2023-11-19T00:22:40;98194.53;;;4.24;100.00
70445;BME280;57902;49.638;11.070;2023-11-19T00:25:10;98201.25;;;4.38;100.00
70445;BME280;57902;49.638;11.070;2023-11-19T00:27:37;98201.31;;;4.29;100.00
70445;BME280;57902;49.638;11.070;2023-11-19T00:30:05;98199.63;;;4.25;100.00
70445;BME280;57902;49.638;11.070;2023-11-19T00:32:33;98191.97;;;4.28;100.00
70445;BME280;57902;49.638;11.070;2023-11-19T00:35:00;98170.72;;;4.26;100.00
70445;BME280;57902;49.638;11.070;2023-11-19T00:37:26;98178.41;;;4.23;100.00
70445;BME280;57902;49.638;11.070;2023-11-19T00:39:53;98173.25;;;4.28;100.00
70445;BME280;57902;49.638;11.070;2023-11-19T00:42:19;98180.91;;;4.29;100.00
70445;BME280;57902;49.638;11.070;2023-11-19T00:44:46;98177.50;;;4.30;100.00
70445;BME280;57902;49.638;11.070;2023-11-19T00:47:17;98167.28;;;4.32;100.00
70445;BME280;57902;49.638;11.070;2023-11-19T00:49:47;98160.47;;;4.31;100.00
70445;BME280;57902;49.638;11.070;2023-11-19T00:52:17;98160.47;;;4.31;100.00
70445;BME280;57902;49.638;11.070;2023-11-19T00:54:44;98153.59;;;4.37;100.00
70445;BME280;57902;49.638;11.070;2023-11-19T00:57:10;98147.66;;;4.37;100.00
70445;BME280;57902;49.638;11.070;2023-11-19T00:59:37;98152.78;;;4.37;100.00
70445;BME280;57902;49.638;11.070;2023-11-19T01:02:03;98151.06;;;4.36;100.00
70445;BME280;57902;49.638;11.070;2023-11-19T01:04:36;98145.13;;;4.35;100.00
70445;BME280;57902;49.638;11.070;2023-11-19T01:07:04;98145.94;;;4.37;100.00
70445;BME280;57902;49.638;11.070;2023-11-19T01:09:32;98142.53;;;4.42;100.00
70445;BME280;57902;49.638;11.070;2023-11-19T01:11:59;98151.03;;;4.44;100.00
70445;BME280;57902;49.638;11.070;2023-11-19T01:14:27;98153.59;;;4.44;100.00
70445;BME280;57902;49.638;11.070;2023-11-19T01:16:54;98157.84;;;4.40;100.00
70445;BME280;57902;49.638;11.070;2023-11-19T01:19:21;98156.19;;;4.39;100.00
70445;BME280;57902;49.638;11.070;2023-11-19T01:21:49;98144.22;;;4.43;100.00
70445;BME280;57902;49.638;11.070;2023-11-19T01:24:16;98140.84;;;4.41;100.00
70445;BME280;57902;49.638;11.070;2023-11-19T01:26:43;98144.25;;;4.41;100.00
70445;BME280;57902;49.638;11.070;2023-11-19T01:29:15;98139.94;;;4.48;100.00
70445;BME280;57902;49.638;11.070;2023-11-19T01:31:42;98141.63;;;4.49;100.00
70445;BME280;57902;49.638;11.070;2023-11-19T01:34:10;98141.63;;;4.50;100.00
70445;BME280;57902;49.638;11.070;2023-11-19T01:36:38;98134.75;;;4.60;100.00
70445;BME280;57902;49.638;11.070;2023-11-19T01:39:06;98124.59;;;4.54;100.00
70445;BME280;57902;49.638;11.070;2023-11-19T01:41:36;98122.84;;;4.56;100.00
70445;BME280;57902;49.638;11.070;2023-11-19T01:44:03;98123.56;;;4.73;100.00
70445;BME280;57902;49.638;11.070;2023-11-19T01:46:30;98105.78;;;4.64;100.00
70445;BME280;57902;49.638;11.070;2023-11-19T01:48:59;98096.47;;;4.57;100.00
70445;BME280;57902;49.638;11.070;2023-11-19T01:51:27;98093.84;;;4.66;100.00
70445;BME280;57902;49.638;11.070;2023-11-19T01:53:55;98089.56;;;4.68;100.00
70445;BME280;57902;49.638;11.070;2023-11-19T01:56:23;98093.84;;;4.66;100.00
70445;BME280;57902;49.638;11.070;2023-11-19T01:58:51;98087.00;;;4.70;100.00
70445;BME280;57902;49.638;11.070;2023-11-19T02:01:19;98080.13;;;4.75;100.00
70445;BME280;57902;49.638;11.070;2023-11-19T02:03:46;98083.56;;;4.72;100.00
70445;BME280;57902;49.638;11.070;2023-11-19T02:06:14;98083.59;;;4.69;100.00
70445;BME280;57902;49.638;11.070;2023-11-19T02:08:42;98076.69;;;4.81;100.00
70445;BME280;57902;49.638;11.070;2023-11-19T02:11:10;98068.22;;;4.72;100.00
70445;BME280;57902;49.638;11.070;2023-11-19T02:13:38;98072.53;;;4.70;100.00
70445;BME280;57902;49.638;11.070;2023-11-19T02:16:07;98081.84;;;4.75;100.00
70445;BME280;57902;49.638;11.070;2023-11-19T02:18:38;98081.03;;;4.68;100.00
70445;BME280;57902;49.638;11.070;2023-11-19T02:21:05;98081.91;;;4.68;100.00
70445;BME280;57902;49.638;11.070;2023-11-19T02:23:32;98086.09;;;4.72;100.00
70445;BME280;57902;49.638;11.070;2023-11-19T02:28:36;98078.41;;;4.76;100.00
70445;BME280;57902;49.638;11.070;2023-11-19T02:31:03;98077.56;;;4.77;100.00
70445;BME280;57902;49.638;11.070;2023-11-19T02:33:40;98080.06;;;4.83;100.00
70445;BME280;57902;49.638;11.070;2023-11-19T02:36:07;98085.13;;;4.86;100.00
70445;BME280;57902;49.638;11.070;2023-11-19T02:38:35;98073.31;;;4.79;100.00
70445;BME280;57902;49.638;11.070;2023-11-19T02:41:06;98069.72;;;4.95;100.00
70445;BME280;57902;49.638;11.070;2023-11-19T02:43:34;98074.03;;;4.90;100.00
70445;BME280;57902;49.638;11.070;2023-11-19T02:46:01;98079.06;;;4.96;100.00
70445;BME280;57902;49.638;11.070;2023-11-19T02:48:40;98080.84;;;4.91;100.00
70445;BME280;57902;49.638;11.070;2023-11-19T02:51:08;98070.63;;;4.91;100.00
70445;BME280;57902;49.638;11.070;2023-11-19T02:53:36;98058.63;;;4.99;100.00
70445;BME280;57902;49.638;11.070;2023-11-19T02:56:07;98057.81;;;4.94;100.00
70445;BME280;57902;49.638;11.070;2023-11-19T02:59:03;98054.41;;;4.94;100.00
70445;BME280;57902;49.638;11.070;2023-11-19T03:01:41;98046.00;;;4.84;100.00
70445;BME280;57902;49.638;11.070;2023-11-19T03:04:10;98048.22;;;5.13;100.00
70445;BME280;57902;49.638;11.070;2023-11-19T03:06:38;98033.72;;;5.14;100.00
70445;BME280;57902;49.638;11.070;2023-11-19T03:09:05;98032.88;;;5.16;100.00
70445;BME280;57902;49.638;11.070;2023-11-19T03:11:37;98033.00;;;5.05;100.00
70445;BME280;57902;49.638;11.070;2023-11-19T03:14:03;98024.63;;;4.91;100.00
70445;BME280;57902;49.638;11.070;2023-11-19T03:16:30;98025.53;;;4.85;100.00
70445;BME280;57902;49.638;11.070;2023-11-19T03:18:57;98017.75;;;4.99;100.00
70445;BME280;57902;49.638;11.070;2023-11-19T03:21:30;97993.94;;;4.94;100.00
70445;BME280;57902;49.638;11.070;2023-11-19T03:23:58;97985.41;;;4.97;100.00
70445;BME280;57902;49.638;11.070;2023-11-19T03:26:27;97981.22;;;4.91;100.00
70445;BME280;57902;49.638;11.070;2023-11-19T03:28:54;97976.22;;;4.82;100.00
70445;BME280;57902;49.638;11.070;2023-11-19T03:31:22;97951.34;;;4.96;100.00
70445;BME280;57902;49.638;11.070;2023-11-19T03:33:48;97913.78;;;5.04;100.00
70445;BME280;57902;49.638;11.070;2023-11-19T03:36:15;97900.88;;;5.12;100.00
70445;BME280;57902;49.638;11.070;2023-11-19T03:38:41;97899.31;;;5.03;100.00
70445;BME280;57902;49.638;11.070;2023-11-19T03:41:12;97900.09;;;5.10;100.00
70445;BME280;57902;49.638;11.070;2023-11-19T03:43:39;97916.31;;;5.06;100.00
70445;BME280;57902;49.638;11.070;2023-11-19T03:46:18;97930.78;;;5.07;100.00
70445;BME280;57902;49.638;11.070;2023-11-19T03:48:49;97942.72;;;5.05;100.00
70445;BME280;57902;49.638;11.070;2023-11-19T03:51:16;97951.19;;;5.10;100.00
70445;BME280;57902;49.638;11.070;2023-11-19T03:53:45;97951.25;;;5.04;100.00
70445;BME280;57902;49.638;11.070;2023-11-19T03:56:12;97952.09;;;5.04;100.00
70445;BME280;57902;49.638;11.070;2023-11-19T03:58:39;97938.22;;;5.24;100.00
70445;BME280;57902;49.638;11.070;2023-11-19T04:01:10;97928.94;;;5.18;100.00
70445;BME280;57902;49.638;11.070;2023-11-19T04:03:37;97923.88;;;5.12;100.00
70445;BME280;57902;49.638;11.070;2023-11-19T04:06:16;97921.53;;;4.98;100.00
70445;BME280;57902;49.638;11.070;2023-11-19T04:08:43;97919.00;;;4.97;100.00
70445;BME280;57902;49.638;11.070;2023-11-19T04:11:10;97918.88;;;5.06;100.00
70445;BME280;57902;49.638;11.070;2023-11-19T04:13:36;97935.91;;;5.07;100.00
70445;BME280;57902;49.638;11.070;2023-11-19T04:16:03;97935.06;;;5.03;100.00
70445;BME280;57902;49.638;11.070;2023-11-19T04:18:31;97946.75;;;5.24;100.00
70445;BME280;57902;49.638;11.070;2023-11-19T04:20:58;97939.78;;;5.33;100.00
70445;BME280;57902;49.638;11.070;2023-11-19T04:23:24;97942.28;;;5.39;100.00
70445;BME280;57902;49.638;11.070;2023-11-19T04:25:51;97943.25;;;5.30;100.00
70445;BME280;57902;49.638;11.070;2023-11-19T04:28:18;97950.16;;;5.23;100.00
70445;BME280;57902;49.638;11.070;2023-11-19T04:30:44;97944.91;;;5.33;100.00
70445;BME280;57902;49.638;11.070;2023-11-19T04:33:11;97957.66;;;5.37;100.00
70445;BME280;57902;49.638;11.070;2023-11-19T04:35:38;97955.03;;;5.40;100.00
70445;BME280;57902;49.638;11.070;2023-11-19T04:38:04;97946.41;;;5.48;100.00
70445;BME280;57902;49.638;11.070;2023-11-19T04:40:31;97940.31;;;5.55;100.00
70445;BME280;57902;49.638;11.070;2023-11-19T04:42:59;97933.50;;;5.55;100.00
70445;BME280;57902;49.638;11.070;2023-11-19T04:45:26;97927.38;;;5.67;100.00
70445;BME280;57902;49.638;11.070;2023-11-19T04:47:52;97924.03;;;5.60;100.00
70445;BME280;57902;49.638;11.070;2023-11-19T04:50:19;97936.03;;;5.58;100.00
70445;BME280;57902;49.638;11.070;2023-11-19T04:52:45;97930.00;;;5.63;100.00
70445;BME280;57902;49.638;11.070;2023-11-19T04:55:12;97934.19;;;5.65;100.00
70445;BME280;57902;49.638;11.070;2023-11-19T04:57:40;97934.19;;;5.67;100.00
70445;BME280;57902;49.638;11.070;2023-11-19T05:00:07;97937.53;;;5.70;100.00
70445;BME280;57902;49.638;11.070;2023-11-19T05:02:37;97941.81;;;5.71;100.00
70445;BME280;57902;49.638;11.070;2023-11-19T05:05:04;97925.53;;;5.74;100.00
70445;BME280;57902;49.638;11.070;2023-11-19T05:07:31;97927.91;;;5.86;100.00
70445;BME280;57902;49.638;11.070;2023-11-19T05:09:57;97923.63;;;5.87;100.00
70445;BME280;57902;49.638;11.070;2023-11-19T05:12:24;97912.50;;;5.89;100.00
70445;BME280;57902;49.638;11.070;2023-11-19T05:14:51;97911.66;;;5.90;100.00
70445;BME280;57902;49.638;11.070;2023-11-19T05:17:17;97912.31;;;6.02;100.00
70445;BME280;57902;49.638;11.070;2023-11-19T05:19:45;97900.47;;;5.94;100.00
70445;BME280;57902;49.638;11.070;2023-11-19T05:22:12;97902.94;;;6.02;100.00
70445;BME280;57902;49.638;11.070;2023-11-19T05:24:39;97896.97;;;6.02;100.00
70445;BME280;57902;49.638;11.070;2023-11-19T05:27:07;97884.16;;;6.03;100.00
70445;BME280;57902;49.638;11.070;2023-11-19T05:29:34;97888.16;;;6.20;100.00
70445;BME280;57902;49.638;11.070;2023-11-19T05:32:00;97880.53;;;6.17;100.00
70445;BME280;57902;49.638;11.070;2023-11-19T05:34:27;97885.66;;;6.17;100.00
70445;BME280;57902;49.638;11.070;2023-11-19T05:36:54;97883.91;;;6.17;100.00
70445;BME280;57902;49.638;11.070;2023-11-19T05:39:20;97886.31;;;6.25;100.00
70445;BME280;57902;49.638;11.070;2023-11-19T05:41:47;97883.75;;;6.25;100.00
70445;BME280;57902;49.638;11.070;2023-11-19T05:44:14;97880.34;;;6.26;100.00
70445;BME280;57902;49.638;11.070;2023-11-19T05:46:40;97876.91;;;6.25;100.00
70445;BME280;57902;49.638;11.070;2023-11-19T05:49:09;97875.16;;;6.29;100.00
70445;BME280;57902;49.638;11.070;2023-11-19T05:51:37;97887.03;;;6.33;100.00
70445;BME280;57902;49.638;11.070;2023-11-19T05:54:07;97886.13;;;6.37;100.00
70445;BME280;57902;49.638;11.070;2023-11-19T05:56:33;97893.63;;;6.45;100.00
70445;BME280;57902;49.638;11.070;2023-11-19T05:59:00;97885.28;;;6.35;100.00
70445;BME280;57902;49.638;11.070;2023-11-19T06:01:36;97884.38;;;6.38;100.00
70445;BME280;57902;49.638;11.070;2023-11-19T06:04:03;97885.09;;;6.44;100.00
70445;BME280;57902;49.638;11.070;2023-11-19T06:06:31;97878.22;;;6.48;100.00
70445;BME280;57902;49.638;11.070;2023-11-19T06:08:57;97878.91;;;6.55;100.00
70445;BME280;57902;49.638;11.070;2023-11-19T06:11:24;97876.38;;;6.53;100.00
70445;BME280;57902;49.638;11.070;2023-11-19T06:13:53;97880.72;;;6.51;100.00
70445;BME280;57902;49.638;11.070;2023-11-19T06:16:20;97891.84;;;6.48;100.00
70445;BME280;57902;49.638;11.070;2023-11-19T06:18:46;97905.47;;;6.51;100.00
70445;BME280;57902;49.638;11.070;2023-11-19T06:21:13;97897.66;;;6.58;100.00
70445;BME280;57902;49.638;11.070;2023-11-19T06:23:39;97895.00;;;6.63;100.00
70445;BME280;57902;49.638;11.070;2023-11-19T06:26:06;97884.75;;;6.63;100.00
70445;BME280;57902;49.638;11.070;2023-11-19T06:28:32;97893.19;;;6.68;100.00
70445;BME280;57902;49.638;11.070;2023-11-19T06:30:59;97884.59;;;6.69;100.00
70445;BME280;57902;49.638;11.070;2023-11-19T06:33:25;97881.16;;;6.72;100.00
70445;BME280;57902;49.638;11.070;2023-11-19T06:35:53;97879.34;;;6.75;100.00
70445;BME280;57902;49.638;11.070;2023-11-19T06:38:21;97871.66;;;6.77;100.00
70445;BME280;57902;49.638;11.070;2023-11-19T06:40:47;97879.19;;;6.85;100.00
70445;BME280;57902;49.638;11.070;2023-11-19T06:43:19;97867.94;;;6.92;100.00
70445;BME280;57902;49.638;11.070;2023-11-19T06:45:45;97871.38;;;6.91;100.00
70445;BME280;57902;49.638;11.070;2023-11-19T06:48:12;97874.66;;;6.97;100.00
70445;BME280;57902;49.638;11.070;2023-11-19T06:50:38;97879.69;;;7.00;100.00
70445;BME280;57902;49.638;11.070;2023-11-19T06:53:05;97878.84;;;7.00;100.00
70445;BME280;57902;49.638;11.070;2023-11-19T06:55:32;97883.09;;;7.01;100.00
70445;BME280;57902;49.638;11.070;2023-11-19T06:58:00;97874.50;;;7.04;100.00
70445;BME280;57902;49.638;11.070;2023-11-19T07:00:29;97887.34;;;7.02;100.00
70445;BME280;57902;49.638;11.070;2023-11-19T07:02:55;97883.97;;;7.00;100.00
70445;BME280;57902;49.638;11.070;2023-11-19T07:05:22;97885.66;;;7.01;100.00
70445;BME280;57902;49.638;11.070;2023-11-19T07:07:50;97883.84;;;7.06;100.00
70445;BME280;57902;49.638;11.070;2023-11-19T07:10:16;97888.91;;;7.09;100.00
70445;BME280;57902;49.638;11.070;2023-11-19T07:12:43;97889.72;;;7.11;100.00
70445;BME280;57902;49.638;11.070;2023-11-19T07:15:11;97883.84;;;7.06;100.00
70445;BME280;57902;49.638;11.070;2023-11-19T07:17:39;97876.84;;;7.13;100.00
70445;BME280;57902;49.638;11.070;2023-11-19T07:20:07;97875.09;;;7.16;100.00
70445;BME280;57902;49.638;11.070;2023-11-19T07:22:33;97885.13;;;7.26;100.00
70445;BME280;57902;49.638;11.070;2023-11-19T07:25:00;97889.31;;;7.30;100.00
70445;BME280;57902;49.638;11.070;2023-11-19T07:27:27;97896.94;;;7.33;100.00
70445;BME280;57902;49.638;11.070;2023-11-19T07:29:54;97890.06;;;7.33;100.00
70445;BME280;57902;49.638;11.070;2023-11-19T07:32:20;97900.28;;;7.35;100.00
70445;BME280;57902;49.638;11.070;2023-11-19T07:34:47;97906.16;;;7.40;100.00
70445;BME280;57902;49.638;11.070;2023-11-19T07:37:13;97912.84;;;7.47;100.00
70445;BME280;57902;49.638;11.070;2023-11-19T07:39:40;97912.69;;;7.53;100.00
70445;BME280;57902;49.638;11.070;2023-11-19T07:42:08;97921.78;;;7.67;100.00
70445;BME280;57902;49.638;11.070;2023-11-19T07:44:35;97911.06;;;7.85;100.00
70445;BME280;57902;49.638;11.070;2023-11-19T07:47:03;97902.91;;;8.04;100.00
70445;BME280;57902;49.638;11.070;2023-11-19T07:49:30;97911.22;;;8.14;100.00
70445;BME280;57902;49.638;11.070;2023-11-19T07:51:57;97916.91;;;8.25;100.00
70445;BME280;57902;49.638;11.070;2023-11-19T07:54:23;97916.72;;;8.33;100.00
70445;BME280;57902;49.638;11.070;2023-11-19T07:56:50;97918.13;;;8.46;100.00
70445;BME280;57902;49.638;11.070;2023-11-19T07:59:17;97919.69;;;8.52;100.00
70445;BME280;57902;49.638;11.070;2023-11-19T08:01:43;97915.19;;;8.58;100.00
70445;BME280;57902;49.638;11.070;2023-11-19T08:04:10;97918.59;;;8.61;100.00
70445;BME280;57902;49.638;11.070;2023-11-19T08:06:36;97910.72;;;8.67;100.00
70445;BME280;57902;49.638;11.070;2023-11-19T08:09:03;97904.66;;;8.69;100.00
70445;BME280;57902;49.638;11.070;2023-11-19T08:11:30;97908.75;;;8.75;100.00
70445;BME280;57902;49.638;11.070;2023-11-19T08:13:56;97903.53;;;8.78;100.00
70445;BME280;57902;49.638;11.070;2023-11-19T08:16:23;97907.34;;;8.95;100.00
70445;BME280;57902;49.638;11.070;2023-11-19T08:18:50;97920.16;;;8.96;100.00
70445;BME280;57902;49.638;11.070;2023-11-19T08:21:16;97913.38;;;8.93;100.00
70445;BME280;57902;49.638;11.070;2023-11-19T08:23:43;97900.38;;;8.98;100.00
70445;BME280;57902;49.638;11.070;2023-11-19T08:26:09;97897.59;;;9.06;100.00
70445;BME280;57902;49.638;11.070;2023-11-19T08:28:37;97891.56;;;9.07;100.00
70445;BME280;57902;49.638;11.070;2023-11-19T08:31:04;97894.13;;;9.07;100.00
70445;BME280;57902;49.638;11.070;2023-11-19T08:33:31;97891.47;;;9.10;100.00
70445;BME280;57902;49.638;11.070;2023-11-19T08:35:58;97891.31;;;9.15;100.00
70445;BME280;57902;49.638;11.070;2023-11-19T08:38:25;97895.72;;;9.11;100.00
70445;BME280;57902;49.638;11.070;2023-11-19T08:40:54;97882.97;;;9.08;100.00
70445;BME280;57902;49.638;11.070;2023-11-19T08:43:26;97884.81;;;9.03;100.00
70445;BME280;57902;49.638;11.070;2023-11-19T08:45:53;97883.09;;;9.03;100.00
70445;BME280;57902;49.638;11.070;2023-11-19T08:48:19;97885.84;;;8.97;100.00
70445;BME280;57902;49.638;11.070;2023-11-19T08:50:46;97881.63;;;8.95;100.00
70445;BME280;57902;49.638;11.070;2023-11-19T08:53:12;97887.66;;;8.93;100.00
70445;BME280;57902;49.638;11.070;2023-11-19T08:55:39;97881.59;;;8.96;100.00
70445;BME280;57902;49.638;11.070;2023-11-19T08:58:06;97886.59;;;9.01;100.00
70445;BME280;57902;49.638;11.070;2023-11-19T09:00:33;97891.59;;;9.05;100.00
70445;BME280;57902;49.638;11.070;2023-11-19T09:02:59;97891.25;;;9.18;100.00
70445;BME280;57902;49.638;11.070;2023-11-19T09:05:26;97887.47;;;9.30;100.00
70445;BME280;57902;49.638;11.070;2023-11-19T09:07:53;97884.28;;;9.48;100.00
70445;BME280;57902;49.638;11.070;2023-11-19T09:10:19;97887.44;;;9.58;100.00
70445;BME280;57902;49.638;11.070;2023-11-19T09:12:46;97889.00;;;9.62;100.00
70445;BME280;57902;49.638;11.070;2023-11-19T09:15:12;97891.53;;;9.63;100.00
70445;BME280;57902;49.638;11.070;2023-11-19T09:17:39;97892.31;;;9.66;100.00
70445;BME280;57902;49.638;11.070;2023-11-19T09:20:07;97908.88;;;9.85;100.00
70445;BME280;57902;49.638;11.070;2023-11-19T09:22:34;97908.75;;;9.88;100.00
70445;BME280;57902;49.638;11.070;2023-11-19T09:25:01;97911.19;;;9.93;100.00
70445;BME280;57902;49.638;11.070;2023-11-19T09:27:28;97920.13;;;10.08;100.00
70445;BME280;57902;49.638;11.070;2023-11-19T09:29:54;97915.69;;;10.11;100.00
70445;BME280;57902;49.638;11.070;2023-11-19T09:32:24;97931.00;;;10.43;100.00
70445;BME280;57902;49.638;11.070;2023-11-19T09:34:51;97924.31;;;10.62;100.00
70445;BME280;57902;49.638;11.070;2023-11-19T09:37:18;97938.31;;;10.79;100.00
70445;BME280;57902;49.638;11.070;2023-11-19T09:39:48;97934.63;;;10.86;100.00
70445;BME280;57902;49.638;11.070;2023-11-19T09:42:14;97929.22;;;10.92;100.00
70445;BME280;57902;49.638;11.070;2023-11-19T09:44:42;97926.34;;;11.01;100.00
70445;BME280;57902;49.638;11.070;2023-11-19T09:47:10;97928.00;;;11.02;100.00
70445;BME280;57902;49.638;11.070;2023-11-19T09:49:38;97922.41;;;11.15;100.00
70445;BME280;57902;49.638;11.070;2023-11-19T09:52:05;97921.16;;;11.25;100.00
70445;BME280;57902;49.638;11.070;2023-11-19T09:54:31;97923.59;;;11.28;100.00
70445;BME280;57902;49.638;11.070;2023-11-19T09:57:01;97925.44;;;11.48;100.00
70445;BME280;57902;49.638;11.070;2023-11-19T09:59:30;97914.44;;;11.43;100.00
70445;BME280;57902;49.638;11.070;2023-11-19T10:01:58;97917.56;;;11.51;100.00
70445;BME280;57902;49.638;11.070;2023-11-19T10:04:29;97908.19;;;11.49;100.00
70445;BME280;57902;49.638;11.070;2023-11-19T10:06:56;97909.09;;;11.48;100.00
70445;BME280;57902;49.638;11.070;2023-11-19T10:09:23;97908.56;;;11.40;100.00
70445;BME280;57902;49.638;11.070;2023-11-19T10:11:50;97899.13;;;11.38;100.00
70445;BME280;57902;49.638;11.070;2023-11-19T10:14:19;97903.59;;;11.35;100.00
70445;BME280;57902;49.638;11.070;2023-11-19T10:16:49;97901.13;;;11.54;100.00
70445;BME280;57902;49.638;11.070;2023-11-19T10:19:19;97906.38;;;11.51;100.00
70445;BME280;57902;49.638;11.070;2023-11-19T10:21:48;97897.50;;;11.58;100.00
70445;BME280;57902;49.638;11.070;2023-11-19T10:24:15;97902.53;;;11.61;100.00
70445;BME280;57902;49.638;11.070;2023-11-19T10:26:45;97905.97;;;11.62;100.00
70445;BME280;57902;49.638;11.070;2023-11-19T10:29:13;97907.75;;;11.60;100.00
70445;BME280;57902;49.638;11.070;2023-11-19T10:31:40;97907.81;;;11.58;100.00
70445;BME280;57902;49.638;11.070;2023-11-19T10:34:24;97894.41;;;11.50;100.00
70445;BME280;57902;49.638;11.070;2023-11-19T10:36:51;97890.53;;;11.60;100.00
70445;BME280;57902;49.638;11.070;2023-11-19T10:39:18;97899.63;;;11.91;100.00
70445;BME280;57902;49.638;11.070;2023-11-19T10:41:44;97892.94;;;12.07;100.00
70445;BME280;57902;49.638;11.070;2023-11-19T10:44:11;97901.84;;;12.21;100.00
70445;BME280;57902;49.638;11.070;2023-11-19T10:46:41;97890.69;;;12.20;100.00
70445;BME280;57902;49.638;11.070;2023-11-19T10:49:08;97892.31;;;12.42;100.00
70445;BME280;57902;49.638;11.070;2023-11-19T10:51:35;97889.81;;;12.20;100.00
70445;BME280;57902;49.638;11.070;2023-11-19T10:54:05;97899.47;;;12.16;100.00
70445;BME280;57902;49.638;11.070;2023-11-19T10:56:33;97894.63;;;12.29;100.00
70445;BME280;57902;49.638;11.070;2023-11-19T10:59:00;97893.56;;;12.13;100.00
70445;BME280;57902;49.638;11.070;2023-11-19T11:01:32;97892.34;;;12.21;100.00
70445;BME280;57902;49.638;11.070;2023-11-19T11:04:02;97874.47;;;12.17;100.00
70445;BME280;57902;49.638;11.070;2023-11-19T11:06:29;97874.31;;;11.99;100.00
70445;BME280;57902;49.638;11.070;2023-11-19T11:08:56;97872.09;;;11.69;100.00
70445;BME280;57902;49.638;11.070;2023-11-19T11:11:23;97864.47;;;11.66;100.00
70445;BME280;57902;49.638;11.070;2023-11-19T11:13:53;97870.94;;;11.77;100.00
70445;BME280;57902;49.638;11.070;2023-11-19T11:16:22;97877.66;;;11.81;100.00
70445;BME280;57902;49.638;11.070;2023-11-19T11:18:49;97865.25;;;11.89;100.00
70445;BME280;57902;49.638;11.070;2023-11-19T11:21:20;97867.50;;;11.98;100.00
70445;BME280;57902;49.638;11.070;2023-11-19T11:24:09;97862.41;;;12.17;100.00
70445;BME280;57902;49.638;11.070;2023-11-19T11:26:56;97856.78;;;12.07;100.00
70445;BME280;57902;49.638;11.070;2023-11-19T11:29:37;97862.84;;;12.06;100.00
70445;BME280;57902;49.638;11.070;2023-11-19T11:37:49;97860.38;;;12.24;100.00
70445;BME280;57902;49.638;11.070;2023-11-19T11:40:18;97853.91;;;12.14;100.00
70445;BME280;57902;49.638;11.070;2023-11-19T11:42:45;97850.94;;;12.43;100.00
70445;BME280;57902;49.638;11.070;2023-11-19T11:45:12;97850.78;;;12.47;100.00
70445;BME280;57902;49.638;11.070;2023-11-19T11:57:51;97849.56;;;12.74;100.00
70445;BME280;57902;49.638;11.070;2023-11-19T12:00:22;97848.56;;;12.77;100.00
70445;BME280;57902;49.638;11.070;2023-11-19T12:02:49;97848.28;;;12.64;100.00
70445;BME280;57902;49.638;11.070;2023-11-19T12:05:16;97843.38;;;12.58;100.00
70445;BME280;57902;49.638;11.070;2023-11-19T12:07:54;97855.25;;;12.62;100.00
70445;BME280;57902;49.638;11.070;2023-11-19T12:10:21;97848.97;;;12.49;100.00
70445;BME280;57902;49.638;11.070;2023-11-19T12:12:53;97866.06;;;12.32;100.00
70445;BME280;57902;49.638;11.070;2023-11-19T12:15:24;97857.94;;;12.21;100.00
70445;BME280;57902;49.638;11.070;2023-11-19T12:17:55;97848.63;;;12.17;100.00
70445;BME280;57902;49.638;11.070;2023-11-19T12:20:26;97844.00;;;12.04;100.00
70445;BME280;57902;49.638;11.070;2023-11-19T12:22:55;97832.59;;;11.88;100.00
70445;BME280;57902;49.638;11.070;2023-11-19T12:25:22;97844.00;;;12.04;100.00
70445;BME280;57902;49.638;11.070;2023-11-19T12:27:50;97833.44;;;11.88;100.00
70445;BME280;57902;49.638;11.070;2023-11-19T12:30:21;97837.56;;;11.72;100.00
70445;BME280;57902;49.638;11.070;2023-11-19T12:32:50;97831.47;;;11.52;100.00
70445;BME280;57902;49.638;11.070;2023-11-19T12:35:17;97825.81;;;11.65;100.00
70445;BME280;57902;49.638;11.070;2023-11-19T12:37:47;97826.97;;;11.58;100.00
70445;BME280;57902;49.638;11.070;2023-11-19T12:40:20;97819.03;;;11.83;100.00
70445;BME280;57902;49.638;11.070;2023-11-19T12:45:14;97819.56;;;11.70;100.00
70445;BME280;57902;49.638;11.070;2023-11-19T12:47:43;97822.63;;;11.58;100.00
70445;BME280;57902;49.638;11.070;2023-11-19T12:50:10;97819.91;;;11.61;100.00
70445;BME280;57902;49.638;11.070;2023-11-19T12:52:37;97826.84;;;11.81;100.00
70445;BME280;57902;49.638;11.070;2023-11-19T12:55:04;97832.38;;;11.94;100.00
70445;BME280;57902;49.638;11.070;2023-11-19T12:57:40;97825.69;;;12.09;100.00
70445;BME280;57902;49.638;11.070;2023-11-19T13:00:18;97822.78;;;11.96;100.00
70445;BME280;57902;49.638;11.070;2023-11-19T13:02:49;97832.38;;;11.94;100.00
70445;BME280;57902;49.638;11.070;2023-11-19T13:05:23;97821.97;;;11.96;100.00
70445;BME280;57902;49.638;11.070;2023-11-19T13:07:50;97823.94;;;12.10;100.00
70445;BME280;57902;49.638;11.070;2023-11-19T13:10:17;97819.28;;;12.18;100.00
70445;BME280;57902;49.638;11.070;2023-11-19T13:13:02;97820.81;;;12.03;100.00